Aviation Digital Data Service (ADDS)

Output produced by METARs form (1826 UTC 16 August 2018)
found at http://www.aviationweather.gov/adds/metars/
 
FXMM 161400Z 35015KT CAVOK 23/M07 Q1023 NOSIG